createdAt,value
2022-08-27T00:00:31.959Z,100022.75
2022-08-27T00:03:03.661Z,100022.23
2022-08-27T00:05:36.862Z,100026.98
2022-08-27T00:08:08.898Z,100019.14
2022-08-27T00:10:39.361Z,100028.61
2022-08-27T00:13:09.126Z,100026.36
2022-08-27T00:15:39.707Z,100026.89
2022-08-27T00:18:10.122Z,100029.69
2022-08-27T00:20:40.421Z,100028.86
2022-08-27T00:23:11.420Z,100013.50
2022-08-27T00:25:42.034Z,100017.47
2022-08-27T00:28:12.893Z,100010.78
2022-08-27T00:30:47.794Z,100013.91
2022-08-27T00:33:21.483Z,100020.64
2022-08-27T00:35:52.838Z,100021.77
2022-08-27T00:38:22.161Z,100024.02
2022-08-27T00:40:53.224Z,100020.13
2022-08-27T00:43:28.789Z,100031.30
2022-08-27T00:46:08.076Z,100022.89
2022-08-27T00:48:38.329Z,100024.56
2022-08-27T00:51:08.689Z,100028.48
2022-08-27T00:53:39.304Z,100028.48
2022-08-27T00:56:17.564Z,100033.79
2022-08-27T00:58:53.966Z,100031.84
2022-08-27T01:01:28.524Z,100028.48
2022-08-27T01:04:01.289Z,100024.56
2022-08-27T01:06:34.577Z,100026.23
2022-08-27T01:09:09.077Z,100029.30
2022-08-27T01:11:39.038Z,100033.22
2022-08-27T01:14:09.801Z,100026.51
2022-08-27T01:16:44.703Z,100029.59
2022-08-27T01:19:35.715Z,100030.16
2022-08-27T01:22:38.071Z,100030.43
2022-08-27T01:25:10.989Z,100023.45
2022-08-27T01:27:42.045Z,100034.08
2022-08-27T01:30:13.660Z,100032.67
2022-08-27T01:32:44.707Z,100025.95
2022-08-27T01:35:14.526Z,100021.75
2022-08-27T01:37:45.368Z,100026.53
2022-08-27T01:40:19.156Z,100036.61
2022-08-27T01:42:51.543Z,100042.22
2022-08-27T01:45:27.737Z,100037.46
2022-08-27T01:47:58.410Z,100033.54
2022-08-27T01:50:36.293Z,100027.95
2022-08-27T01:53:16.456Z,100029.92
2022-08-27T01:55:48.502Z,100038.31
2022-08-27T01:58:19.515Z,100041.97
2022-08-27T02:00:56.085Z,100028.59
2022-08-27T02:03:22.930Z,100027.52
2022-08-27T02:05:53.199Z,100032.56
2022-08-27T02:08:22.660Z,100026.42
2022-08-27T02:10:54.125Z,100026.16
2022-08-27T02:13:24.871Z,100036.79
2022-08-27T02:15:56.838Z,100032.34
2022-08-27T02:18:26.526Z,100028.16
2022-08-27T02:20:55.828Z,100030.14
2022-08-27T02:23:26.717Z,100031.55
2022-08-27T02:25:56.454Z,100032.41
2022-08-27T02:28:26.542Z,100027.95
2022-08-27T02:30:57.100Z,100031.89
2022-08-27T02:33:28.116Z,100024.63
2022-08-27T02:35:58.750Z,100027.98
2022-08-27T02:38:28.185Z,100024.63
2022-08-27T02:40:58.795Z,100021.56
2022-08-27T02:43:29.579Z,100016.27
2022-08-27T02:46:01.235Z,100022.42
2022-08-27T02:48:31.831Z,100020.47
2022-08-27T02:51:02.663Z,100016.30
2022-08-27T02:53:32.953Z,100021.31
2022-08-27T02:56:03.402Z,100017.96
2022-08-27T02:58:33.570Z,100018.51
2022-08-27T03:01:03.083Z,100014.03
2022-08-27T03:03:32.480Z,100017.37
2022-08-27T03:06:04.429Z,100017.37
2022-08-27T03:08:36.490Z,100013.20
2022-08-27T03:11:09.670Z,100014.05
2022-08-27T03:13:43.309Z,100011.25
2022-08-27T03:16:13.338Z,100012.92
2022-08-27T03:18:45.859Z,100013.48
2022-08-27T03:21:24.197Z,100017.67
2022-08-27T03:23:54.373Z,100014.31
2022-08-27T03:26:24.343Z,100015.72
2022-08-27T03:28:54.127Z,100018.81
2022-08-27T03:31:28.388Z,100015.16
2022-08-27T03:34:04.177Z,100013.22
2022-08-27T03:36:34.909Z,100012.10
2022-08-27T03:39:04.283Z,100014.06
2022-08-27T03:41:45.441Z,100016.84
2022-08-27T03:44:07.413Z,100015.73
2022-08-27T03:46:37.753Z,100010.95
2022-08-27T03:49:08.397Z,100013.48
2022-08-27T03:51:40.804Z,100010.95
2022-08-27T03:54:11.253Z,100008.16
2022-08-27T03:56:41.428Z,100002.58
2022-08-27T03:59:11.068Z,100004.27
2022-08-27T04:01:42.589Z,100005.93
2022-08-27T04:04:12.977Z,99998.41
2022-08-27T04:06:43.086Z,99998.11
2022-08-27T04:09:12.543Z,100001.77
2022-08-27T04:11:43.296Z,100005.94
2022-08-27T04:14:26.238Z,100000.93
2022-08-27T04:16:48.179Z,100001.47
2022-08-27T04:19:25.071Z,99998.95
2022-08-27T04:21:54.783Z,99999.50
2022-08-27T04:24:25.499Z,100004.23
2022-08-27T04:26:55.501Z,100003.95
2022-08-27T04:29:25.865Z,99995.85
2022-08-27T04:31:56.312Z,99993.91
2022-08-27T04:34:28.098Z,100000.59
2022-08-27T04:36:59.283Z,100001.95
2022-08-27T04:39:30.136Z,99992.14
2022-08-27T04:42:02.875Z,99992.95
2022-08-27T04:44:33.190Z,99982.33
2022-08-27T04:47:04.322Z,99976.42
2022-08-27T04:49:34.194Z,99986.46
2022-08-27T04:52:05.328Z,99981.95
2022-08-27T04:54:36.108Z,99989.20
2022-08-27T04:57:08.047Z,99987.26
2022-08-27T04:59:40.433Z,99983.63
2022-08-27T05:02:13.542Z,99988.66
2022-08-27T05:04:44.324Z,99984.17
2022-08-27T05:07:14.230Z,99975.22
2022-08-27T05:09:44.709Z,99981.38
2022-08-27T05:12:15.083Z,99986.97
2022-08-27T05:14:50.091Z,99990.02
2022-08-27T05:17:21.909Z,100000.34
2022-08-27T05:19:54.372Z,99993.89
2022-08-27T05:22:25.000Z,99996.70
2022-08-27T05:24:54.949Z,99995.02
2022-08-27T05:27:24.987Z,100002.83
2022-08-27T05:29:55.882Z,100003.66
2022-08-27T05:32:26.716Z,99994.70
2022-08-27T05:34:56.798Z,99997.50
2022-08-27T05:37:27.249Z,99994.69
2022-08-27T05:39:57.618Z,99993.29
2022-08-27T05:42:30.631Z,99996.08
2022-08-27T05:45:00.637Z,99998.59
2022-08-27T05:47:30.764Z,99989.34
2022-08-27T05:50:01.589Z,99994.35
2022-08-27T05:52:32.159Z,99994.09
2022-08-27T05:55:03.223Z,99988.50
2022-08-27T05:57:33.827Z,99991.28
2022-08-27T06:00:25.655Z,99994.39
2022-08-27T06:02:56.888Z,99986.05
2022-08-27T06:05:26.773Z,99982.71
2022-08-27T06:07:59.638Z,99982.69
2022-08-27T06:10:30.285Z,99991.63
2022-08-27T06:13:01.110Z,99988.80
2022-08-27T06:15:31.644Z,99984.61
2022-08-27T06:18:03.163Z,99988.80
2022-08-27T06:20:33.748Z,99993.85
2022-08-27T06:23:04.280Z,99991.35
2022-08-27T06:25:35.428Z,99996.94
2022-08-27T06:28:06.692Z,99985.20
2022-08-27T06:30:38.447Z,99986.30
2022-08-27T06:33:08.956Z,99990.20
2022-08-27T06:35:39.129Z,99986.01
2022-08-27T06:38:08.620Z,99983.48
2022-08-27T06:40:41.925Z,99981.80
2022-08-27T06:43:13.854Z,99977.33
2022-08-27T06:45:48.730Z,99979.29
2022-08-27T06:48:18.972Z,99978.43
2022-08-27T06:50:49.785Z,99971.15
2022-08-27T06:53:19.413Z,99969.75
2022-08-27T06:55:52.503Z,99968.63
2022-08-27T06:58:21.759Z,99976.44
2022-08-27T07:00:51.699Z,99977.24
2022-08-27T07:03:23.358Z,99977.22
2022-08-27T07:05:53.110Z,99974.70
2022-08-27T07:08:22.889Z,99979.70
2022-08-27T07:10:57.831Z,99980.52
2022-08-27T07:13:30.063Z,99978.80
2022-08-27T07:16:00.246Z,99976.81
2022-08-27T07:18:31.033Z,99974.23
2022-08-27T07:21:04.245Z,99966.33
2022-08-27T07:23:34.859Z,99965.14
2022-08-27T07:26:12.786Z,99967.88
2022-08-27T07:28:43.443Z,99956.06
2022-08-27T07:31:16.654Z,99954.04
2022-08-27T07:33:53.142Z,99950.95
2022-08-27T07:36:20.448Z,99949.75
2022-08-27T07:38:57.019Z,99937.92
2022-08-27T07:41:31.148Z,99945.99
2022-08-27T07:44:16.174Z,99945.13
2022-08-27T07:46:48.990Z,99940.30
2022-08-27T07:49:18.973Z,99954.77
2022-08-27T07:51:49.552Z,99954.39
2022-08-27T07:54:18.955Z,99950.08
2022-08-27T07:56:55.071Z,99946.64
2022-08-27T07:59:24.275Z,99952.70
2022-08-27T08:01:56.196Z,99952.59
2022-08-27T08:04:27.546Z,99957.52
2022-08-27T08:06:59.519Z,99957.35
2022-08-27T08:09:31.439Z,99972.12
2022-08-27T08:12:02.154Z,99963.02
2022-08-27T08:14:32.572Z,99956.45
2022-08-27T08:17:02.567Z,99956.06
2022-08-27T08:19:34.006Z,99948.09
2022-08-27T08:22:06.696Z,99957.80
2022-08-27T08:24:38.341Z,99948.51
2022-08-27T08:27:10.756Z,99944.21
2022-08-27T08:29:42.722Z,99946.97
2022-08-27T08:32:15.457Z,99944.34
2022-08-27T08:34:45.804Z,99930.16
2022-08-27T08:37:16.127Z,99939.56
2022-08-27T08:39:46.931Z,99932.09
2022-08-27T08:42:50.901Z,99935.58
2022-08-27T08:45:17.141Z,99929.86
2022-08-27T08:47:53.401Z,99926.36
2022-08-27T08:50:39.376Z,99935.52
2022-08-27T08:53:31.632Z,99923.55
2022-08-27T08:56:05.516Z,99923.84
2022-08-27T08:58:55.419Z,99929.30
2022-08-27T09:01:25.606Z,99927.66
2022-08-27T09:04:00.384Z,99914.38
2022-08-27T09:07:06.031Z,99918.52
2022-08-27T09:10:07.796Z,99921.34
2022-08-27T09:12:39.539Z,99923.24
2022-08-27T09:15:23.278Z,99921.66
2022-08-27T09:17:54.200Z,99919.23
2022-08-27T09:20:25.853Z,99921.58
2022-08-27T09:23:12.142Z,99919.37
2022-08-27T09:25:43.186Z,99930.09
2022-08-27T09:28:34.873Z,99932.13
2022-08-27T09:31:09.956Z,99926.59
2022-08-27T09:33:55.060Z,99923.13
2022-08-27T09:36:15.337Z,99920.64
2022-08-27T09:39:01.506Z,99915.85
2022-08-27T09:41:35.008Z,99924.94
2022-08-27T09:44:11.717Z,99921.91
2022-08-27T09:46:54.728Z,99915.78
2022-08-27T09:49:26.699Z,99911.75
2022-08-27T09:51:57.400Z,99915.90
2022-08-27T09:54:43.811Z,99918.55
2022-08-27T09:57:15.450Z,99907.11
2022-08-27T09:59:53.688Z,99903.88
2022-08-27T10:02:25.509Z,99902.97
2022-08-27T10:04:58.830Z,99907.56
2022-08-27T10:07:56.074Z,99904.66
2022-08-27T10:10:40.552Z,99908.14
2022-08-27T10:13:29.830Z,99906.73
2022-08-27T10:16:34.891Z,99913.12
2022-08-27T10:19:27.555Z,99901.92
2022-08-27T10:22:20.059Z,99911.21
2022-08-27T10:25:33.830Z,99908.88
2022-08-27T10:28:34.071Z,99904.64
2022-08-27T10:31:14.686Z,99897.09
2022-08-27T10:34:22.887Z,99903.90
2022-08-27T10:37:01.245Z,99904.89
2022-08-27T10:40:19.503Z,99911.52
2022-08-27T10:43:02.773Z,99902.58
2022-08-27T10:46:01.354Z,99900.57
2022-08-27T10:48:51.600Z,99902.38
2022-08-27T10:51:28.551Z,99903.49
2022-08-27T10:54:46.167Z,99907.64
2022-08-27T10:57:56.505Z,99911.88
2022-08-27T11:00:21.279Z,99914.36
2022-08-27T11:03:24.716Z,99914.52
2022-08-27T11:05:54.308Z,99910.53
2022-08-27T11:08:34.704Z,99909.12
2022-08-27T11:12:03.166Z,99915.02
2022-08-27T11:13:54.083Z,99905.22
2022-08-27T11:16:29.877Z,99905.22
2022-08-27T11:19:24.250Z,99909.70
2022-08-27T11:22:27.623Z,99909.70
2022-08-27T11:25:52.668Z,99897.73
2022-08-27T11:28:30.020Z,99897.73
2022-08-27T11:31:19.719Z,99897.70
2022-08-27T11:34:15.470Z,99898.35
2022-08-27T11:37:19.360Z,99900.16
2022-08-27T11:40:31.802Z,99891.44
2022-08-27T11:43:07.780Z,99889.36
2022-08-27T11:45:38.477Z,99890.09
2022-08-27T11:48:32.915Z,99885.95
2022-08-27T11:51:19.035Z,99884.53
2022-08-27T11:54:01.553Z,99884.53
2022-08-27T11:56:37.657Z,99883.61
2022-08-27T11:59:31.319Z,99879.04
2022-08-27T12:02:27.763Z,99876.45
2022-08-27T12:05:09.521Z,99875.78
2022-08-27T12:07:43.820Z,99875.78
2022-08-27T12:10:24.463Z,99872.62
2022-08-27T12:13:21.348Z,99874.18
2022-08-27T12:16:24.636Z,99870.43
2022-08-27T12:19:23.733Z,99862.48
2022-08-27T12:22:14.135Z,99861.13
2022-08-27T12:24:55.762Z,99852.75
2022-08-27T12:27:32.682Z,99856.16
2022-08-27T12:30:10.242Z,99855.67
2022-08-27T12:32:44.554Z,99854.94
2022-08-27T12:35:24.121Z,99854.94
2022-08-27T12:37:57.811Z,99853.03
2022-08-27T12:40:30.961Z,99847.78
2022-08-27T12:43:16.641Z,99835.31
2022-08-27T12:45:52.780Z,99836.47
2022-08-27T12:48:30.623Z,99836.47
2022-08-27T12:51:06.870Z,99830.72
2022-08-27T12:53:59.152Z,99824.38
2022-08-27T12:56:54.626Z,99831.19
2022-08-27T12:59:38.861Z,99831.19
2022-08-27T13:02:25.610Z,99823.78
2022-08-27T13:04:55.424Z,99823.67
2022-08-27T13:07:34.930Z,99833.47
2022-08-27T13:10:18.195Z,99825.48
2022-08-27T13:12:49.126Z,99835.37
2022-08-27T13:15:21.500Z,99835.37
2022-08-27T13:17:50.580Z,99829.13
2022-08-27T13:20:23.991Z,99829.27
2022-08-27T13:22:53.640Z,99817.77
2022-08-27T13:25:33.215Z,99822.05
2022-08-27T13:28:15.902Z,99824.67
2022-08-27T13:30:48.569Z,99826.33
2022-08-27T13:33:29.516Z,99828.08
2022-08-27T13:36:00.492Z,99830.91
2022-08-27T13:38:33.266Z,99827.70
2022-08-27T13:41:27.062Z,99828.39
2022-08-27T13:43:59.346Z,99829.27
2022-08-27T13:46:30.372Z,99831.62
2022-08-27T13:49:00.574Z,99826.30
2022-08-27T13:51:32.527Z,99822.66
2022-08-27T13:54:17.683Z,99829.95
2022-08-27T13:56:55.510Z,99824.06
2022-08-27T13:59:27.782Z,99833.95
2022-08-27T14:02:01.451Z,99829.81
2022-08-27T14:04:53.028Z,99834.40
2022-08-27T14:07:27.425Z,99823.67
2022-08-27T14:10:03.527Z,99829.91
2022-08-27T14:12:38.003Z,99831.91
2022-08-27T14:15:35.348Z,99834.59
2022-08-27T14:18:07.868Z,99837.86
2022-08-27T14:20:37.815Z,99838.03
2022-08-27T14:23:08.402Z,99836.47
2022-08-27T14:25:39.701Z,99840.52
2022-08-27T14:28:08.985Z,99835.75
2022-08-27T14:30:38.337Z,99835.75
2022-08-27T14:33:07.695Z,99842.17
2022-08-27T14:35:39.502Z,99839.14
2022-08-27T14:38:17.666Z,99839.14
2022-08-27T14:40:48.609Z,99840.74
2022-08-27T14:43:18.626Z,99840.74
2022-08-27T14:45:49.174Z,99840.34
2022-08-27T14:48:28.935Z,99844.18
2022-08-27T14:51:02.197Z,99846.12
2022-08-27T14:53:32.356Z,99846.12
2022-08-27T14:56:02.908Z,99843.63
2022-08-27T14:58:32.920Z,99840.87
2022-08-27T15:01:03.598Z,99840.63
2022-08-27T15:03:34.917Z,99840.71
2022-08-27T15:06:07.092Z,99835.73
2022-08-27T15:08:36.592Z,99846.30
2022-08-27T15:11:06.070Z,99837.66
2022-08-27T15:13:38.468Z,99830.54
2022-08-27T15:16:08.822Z,99830.54
2022-08-27T15:18:38.962Z,99840.34
2022-08-27T15:21:10.114Z,99840.34
2022-08-27T15:23:40.560Z,99837.86
2022-08-27T15:26:11.097Z,99836.53
2022-08-27T15:28:43.222Z,99837.70
2022-08-27T15:31:14.581Z,99837.70
2022-08-27T15:33:45.333Z,99846.50
2022-08-27T15:36:15.027Z,99844.92
2022-08-27T15:38:45.960Z,99843.94
2022-08-27T15:41:16.688Z,99844.60
2022-08-27T15:43:46.658Z,99845.02
2022-08-27T15:46:16.672Z,99840.68
2022-08-27T15:48:47.138Z,99848.15
2022-08-27T15:51:17.524Z,99854.86
2022-08-27T15:53:47.185Z,99851.63
2022-08-27T15:56:19.824Z,99853.51
2022-08-27T15:58:49.443Z,99850.52
2022-08-27T16:01:24.261Z,99848.69
2022-08-27T16:03:55.209Z,99856.41
2022-08-27T16:06:25.344Z,99855.41
2022-08-27T16:08:55.564Z,99848.27
2022-08-27T16:11:25.619Z,99855.64
2022-08-27T16:13:55.719Z,99851.66
2022-08-27T16:16:28.363Z,99846.14
2022-08-27T16:19:02.484Z,99847.96
2022-08-27T16:21:34.784Z,99850.61
2022-08-27T16:24:04.812Z,99849.92
2022-08-27T16:26:34.551Z,99850.58
2022-08-27T16:29:05.336Z,99850.66
2022-08-27T16:31:36.934Z,99847.41
2022-08-27T16:34:15.957Z,99851.77
2022-08-27T16:36:45.641Z,99852.99
2022-08-27T16:39:16.678Z,99850.33
2022-08-27T16:41:46.934Z,99858.59
2022-08-27T16:44:17.208Z,99866.03
2022-08-27T16:46:47.499Z,99860.30
2022-08-27T16:49:36.154Z,99862.68
2022-08-27T16:52:08.019Z,99867.62
2022-08-27T16:54:38.527Z,99869.71
2022-08-27T16:57:08.696Z,99869.53
2022-08-27T16:59:39.837Z,99869.34
2022-08-27T17:02:14.428Z,99870.89
2022-08-27T17:04:49.262Z,99879.22
2022-08-27T17:07:19.781Z,99876.00
2022-08-27T17:09:52.229Z,99871.91
2022-08-27T17:12:24.288Z,99868.91
2022-08-27T17:14:55.719Z,99874.16
2022-08-27T17:17:27.751Z,99868.41
2022-08-27T17:19:57.562Z,99869.95
2022-08-27T17:22:27.627Z,99870.43
2022-08-27T17:24:58.151Z,99872.28
2022-08-27T17:27:28.645Z,99878.03
2022-08-27T17:29:58.960Z,99878.16
2022-08-27T17:32:28.997Z,99883.12
2022-08-27T17:35:05.110Z,99878.75
2022-08-27T17:37:32.998Z,99880.84
2022-08-27T17:40:03.671Z,99882.62
2022-08-27T17:42:34.049Z,99880.77
2022-08-27T17:45:04.844Z,99881.14
2022-08-27T17:47:35.703Z,99889.69
2022-08-27T17:50:06.174Z,99889.54
2022-08-27T17:52:38.839Z,99885.09
2022-08-27T17:55:08.779Z,99892.43
2022-08-27T17:57:41.091Z,99892.48
2022-08-27T18:00:13.032Z,99893.12
2022-08-27T18:02:48.619Z,99890.42
2022-08-27T18:05:19.760Z,99890.01
2022-08-27T18:07:50.683Z,99896.88
2022-08-27T18:10:23.576Z,99889.93
2022-08-27T18:12:55.351Z,99890.04
2022-08-27T18:15:27.346Z,99890.41
2022-08-27T18:17:58.484Z,99890.51
2022-08-27T18:20:28.611Z,99895.70
2022-08-27T18:22:58.119Z,99887.75
2022-08-27T18:25:33.841Z,99886.39
2022-08-27T18:28:04.117Z,99890.30
2022-08-27T18:30:33.590Z,99886.77
2022-08-27T18:33:04.898Z,99890.50
2022-08-27T18:35:35.027Z,99887.53
2022-08-27T18:38:06.060Z,99889.30
2022-08-27T18:40:43.617Z,99891.05
2022-08-27T18:43:14.592Z,99887.22
2022-08-27T18:45:44.575Z,99891.25
2022-08-27T18:48:17.346Z,99885.42
2022-08-27T18:50:50.206Z,99885.78
2022-08-27T18:53:22.518Z,99886.44
2022-08-27T18:55:52.506Z,99889.59
2022-08-27T18:58:21.857Z,99892.39
2022-08-27T19:00:57.105Z,99897.47
2022-08-27T19:03:39.874Z,99896.95
2022-08-27T19:06:10.134Z,99888.41
2022-08-27T19:08:40.090Z,99892.36
2022-08-27T19:11:10.598Z,99885.39
2022-08-27T19:13:40.629Z,99887.97
2022-08-27T19:16:14.011Z,99879.91
2022-08-27T19:18:43.169Z,99879.16
2022-08-27T19:21:13.498Z,99879.81
2022-08-27T19:23:44.173Z,99875.09
2022-08-27T19:26:19.041Z,99877.41
2022-08-27T19:28:48.500Z,99874.06
2022-08-27T19:31:18.430Z,99874.94
2022-08-27T19:33:48.374Z,99871.30
2022-08-27T19:36:19.340Z,99868.55
2022-08-27T19:38:50.712Z,99868.02
2022-08-27T19:41:27.209Z,99873.66
2022-08-27T19:43:53.552Z,99874.56
2022-08-27T19:46:22.768Z,99873.20
2022-08-27T19:48:52.933Z,99881.64
2022-08-27T19:51:22.984Z,99875.55
2022-08-27T19:53:52.830Z,99870.55
2022-08-27T19:56:23.438Z,99876.45
2022-08-27T19:58:56.818Z,99878.42
2022-08-27T20:01:25.068Z,99876.26
2022-08-27T20:03:54.101Z,99874.30
2022-08-27T20:06:26.752Z,99877.70
2022-08-27T20:08:56.524Z,99872.97
2022-08-27T20:11:26.944Z,99881.40
2022-08-27T20:13:58.378Z,99884.77
2022-08-27T20:16:28.824Z,99880.63
2022-08-27T20:19:01.318Z,99877.03
2022-08-27T20:21:30.508Z,99874.54
2022-08-27T20:23:59.705Z,99875.44
2022-08-27T20:26:32.725Z,99873.00
2022-08-27T20:29:02.698Z,99874.17
2022-08-27T20:31:32.588Z,99872.56
2022-08-27T20:34:04.359Z,99868.99
2022-08-27T20:36:34.388Z,99872.66
2022-08-27T20:39:04.934Z,99888.88
2022-08-27T20:41:35.843Z,99878.58
2022-08-27T20:44:06.443Z,99889.02
2022-08-27T20:46:35.363Z,99882.68
2022-08-27T20:49:07.404Z,99869.88
2022-08-27T20:52:02.049Z,99868.82
2022-08-27T20:54:07.748Z,99872.77
2022-08-27T20:56:36.913Z,99877.83
2022-08-27T20:59:25.773Z,99874.48
2022-08-27T21:01:55.056Z,99870.63
2022-08-27T21:04:25.308Z,99879.34
2022-08-27T21:06:56.163Z,99878.83
2022-08-27T21:09:27.518Z,99886.99
2022-08-27T21:11:57.568Z,99883.44
2022-08-27T21:14:26.695Z,99878.43
2022-08-27T21:16:59.358Z,99878.49
2022-08-27T21:19:28.844Z,99865.97
2022-08-27T21:22:01.018Z,99868.23
2022-08-27T21:24:31.143Z,99869.11
2022-08-27T21:27:01.013Z,99867.19
2022-08-27T21:29:31.534Z,99864.95
2022-08-27T21:32:00.337Z,99864.97
2022-08-27T21:34:30.991Z,99863.87
2022-08-27T21:36:59.899Z,99860.26
2022-08-27T21:39:28.708Z,99857.21
2022-08-27T21:42:00.635Z,99854.16
2022-08-27T21:44:30.824Z,99855.61
2022-08-27T21:47:01.507Z,99852.56
2022-08-27T21:49:32.354Z,99849.77
2022-08-27T21:52:03.403Z,99850.36
2022-08-27T21:54:37.273Z,99854.54
2022-08-27T21:57:07.994Z,99855.10
2022-08-27T21:59:44.544Z,99851.19
2022-08-27T22:02:38.331Z,99853.42
2022-08-27T22:04:46.983Z,99851.17
2022-08-27T22:07:18.333Z,99852.58
2022-08-27T22:09:48.473Z,99849.27
2022-08-27T22:12:19.258Z,99849.55
2022-08-27T22:14:48.803Z,99842.31
2022-08-27T22:17:19.919Z,99846.80
2022-08-27T22:19:49.354Z,99845.98
2022-08-27T22:22:19.459Z,99851.30
2022-08-27T22:24:50.450Z,99845.97
2022-08-27T22:27:20.703Z,99843.16
2022-08-27T22:29:50.684Z,99843.71
2022-08-27T22:32:20.993Z,99843.41
2022-08-27T22:34:50.229Z,99844.50
2022-08-27T22:37:20.940Z,99855.38
2022-08-27T22:39:50.555Z,99859.00
2022-08-27T22:42:19.915Z,99859.87
2022-08-27T22:44:49.455Z,99860.19
2022-08-27T22:47:20.550Z,99858.82
2022-08-27T22:49:52.916Z,99854.39
2022-08-27T22:52:23.213Z,99858.30
2022-08-27T22:54:54.850Z,99859.98
2022-08-27T22:57:25.080Z,99858.02
2022-08-27T22:59:54.935Z,99854.92
2022-08-27T23:02:23.870Z,99859.94
2022-08-27T23:04:55.545Z,99859.94
2022-08-27T23:07:24.556Z,99848.49
2022-08-27T23:09:53.993Z,99851.56
2022-08-27T23:12:24.270Z,99847.11
2022-08-27T23:14:54.275Z,99844.03
2022-08-27T23:17:23.980Z,99838.98
2022-08-27T23:19:56.080Z,99841.73
2022-08-27T23:22:26.675Z,99846.71
2022-08-27T23:25:13.750Z,99844.70
2022-08-27T23:27:42.935Z,99846.88
2022-08-27T23:30:13.534Z,99844.59
2022-08-27T23:32:46.367Z,99850.70
2022-08-27T23:35:15.240Z,99850.95
2022-08-27T23:37:45.925Z,99855.94
2022-08-27T23:40:15.298Z,99854.83
2022-08-27T23:42:45.276Z,99865.98
2022-08-27T23:45:18.462Z,99862.90
2022-08-27T23:47:49.363Z,99864.84
2022-08-27T23:50:19.390Z,99857.27
2022-08-27T23:52:49.091Z,99855.31
2022-08-27T23:55:18.586Z,99854.77
2022-08-27T23:57:49.200Z,99855.64
